Azle, Texas
Current Conditions -  °F | °C
As of 6:52 PM on Thursday 27 Nov 2014 (Local Time) from KNFW Reporting Station
Clear Clear  
Wind Chill: 53°   Ceiling: Unl
Heat Index: 53°   Visibility: 10mi
Dew Point: 24°   Wind: 3mph
Humidity: 32%   Direction: 130°SE
Pressure: 30.43"   Gusts: NA
Location:  32.88°N, 97.54°W
Report Text: KNFW 280052Z AUTO 13003KT 10SM CLR 12/M04 A3043 RMK AO2 SLP285 T01171044
Loading
Personal Weather Stations






























Interactive Weather Map New forecast layout! Learn more

10-Day Weather Forecast

Advertisements
Track Severe Weather on mobile